Terminal Aerodrome Forecast
Issued by NWS Quad Cities IA IL

Home | Current Version | Previous Version | Text Only | Print | Product List | Glossary On
Versions: 1 2 3 4 5 6 7 8 9 10 11 12 13 14 15 16 17 18 19 20 21 22 23 24 25 26 27
890
FTUS43 KDVN 160831 AAA
TAFMLI
TAF AMD
KMLI 160831Z 1609/1706 33014KT P6SM SCT025 BKN120
     FM161400 32013KT P6SM SKC
     FM170000 21005KT P6SM SCT250=

USA.gov is the U.S. government's official web portal to all federal, state and local government web resources and services.